History for KNYNEWYO324

Midtown, New York, NY — Current Conditions
Daily Summary for August 22, 2017
  Current: High: Low: Average:
Temperature: 75.4°F 75.4°F 71.4°F 73.4°F
Dew Point: 59.9°F 59.9°F 55.2°F 57.1°F
Humidity: 58% 62% 54% 57%
Wind Speed: - 0.0mph - 0.0mph
Wind Gust: - 0.0mph - -
Wind: North - - North
Pressure: 29.80in 30.10in 29.80in -
Precipitation: 0.00in      
Statistics for the rest of the month
    High: Low: Average:
Temperature:   84.4°F 70.2°F 74.2°F
Dew Point:   64.8°F 51.2°F 56.7°F
Humidity:   68.0% 42.0% 54.8%
Wind Speed:   0.0mph from the North - 0.0mph
Wind Gust:   0.0mph from the North - -
Wind:   - - North
Pressure:   30.24in 29.77in -
Precipitation:   0.00in    
KNYNEWYO324 Weather Graph
Tabular Data for August 22, 2017
Time Temp. Dew Point Pressure Wind Gust Humidity Rainfall
00:17 74.3°F 58.8°F 30.10in - 58% -
00:37 74.1°F 58.2°F 30.10in - 57% -
00:47 73.9°F 58.0°F 30.09in - 57% -
01:08 73.9°F 58.0°F 30.09in - 57% -
01:18 73.9°F 58.0°F 30.09in - 57% -
01:38 74.1°F 58.2°F 30.08in - 57% -
01:48 74.1°F 58.2°F 30.07in - 57% -
02:08 74.1°F 58.2°F 30.07in - 57% -
02:18 73.9°F 57.0°F 30.06in - 55% -
02:38 73.4°F 56.0°F 30.06in - 54% -
02:48 73.2°F 55.9°F 30.06in - 54% -
03:08 72.9°F 55.5°F 30.06in - 54% -
03:18 72.9°F 55.5°F 30.06in - 54% -
03:48 72.5°F 55.2°F 30.05in - 54% -
04:19 72.3°F 55.5°F 30.04in - 55% -
04:28 72.3°F 55.5°F 30.04in - 55% -
04:39 72.1°F 55.3°F 30.04in - 55% -
04:49 72.0°F 55.7°F 30.04in - 56% -
05:09 72.0°F 55.2°F 30.03in - 55% -
05:19 71.8°F 55.5°F 30.04in - 56% -
05:28 71.8°F 55.5°F 30.04in - 56% -
05:49 71.8°F 55.5°F 30.03in - 56% -
06:19 71.8°F 55.5°F 30.03in - 56% -
06:49 71.6°F 55.3°F 30.04in - 56% -
07:10 71.4°F 55.6°F 30.04in - 57% -
07:20 71.4°F 55.6°F 30.03in - 57% -
07:29 71.4°F 55.6°F 30.03in - 57% -
07:50 71.6°F 55.8°F 30.03in - 57% -
07:59 71.6°F 55.8°F 30.03in - 57% -
08:10 71.6°F 55.8°F 30.03in - 57% -
08:30 71.6°F 55.8°F 30.03in - 57% -
08:40 71.6°F 56.3°F 30.02in - 58% -
09:00 71.6°F 56.3°F 30.02in - 58% -
09:10 71.6°F 56.3°F 30.01in - 58% -
09:30 71.6°F 56.3°F 30.01in - 58% -
09:40 71.6°F 56.3°F 30.01in - 58% -
10:11 71.6°F 56.8°F 30.01in - 59% -
10:41 71.8°F 57.4°F 30.00in - 60% -
11:11 72.0°F 57.6°F 29.99in - 60% -
11:41 72.5°F 59.0°F 29.98in - 62% -
12:11 72.7°F 58.7°F 29.96in - 61% -
12:41 72.9°F 59.3°F 29.95in - 62% -
13:12 73.2°F 59.2°F 29.94in - 61% -
13:42 73.4°F 58.9°F 29.93in - 60% -
14:12 73.8°F 59.7°F 29.91in - 61% -
14:42 73.9°F 59.4°F 29.89in - 60% -
15:12 73.9°F 59.0°F 29.87in - 59% -
15:42 74.3°F 59.3°F 29.84in - 59% -
16:13 74.7°F 59.6°F 29.84in - 59% -
16:43 74.8°F 59.3°F 29.83in - 58% -
17:13 75.0°F 59.5°F 29.82in - 58% -
17:43 75.4°F 59.9°F 29.80in - 58% -
Comma Delimited File
Powered by Weather Underground, Inc.